Time;durP1;ratioP1;P1;durP2;ratioP2;P2;SDS_P1;SDS_P2;PMS_P1;PMS_P2;Temp;Humidity;BMP_temperature;BMP_pressure;BME280_temperature;BME280_humidity;BME280_pressure;Samples;Min_cycle;Max_cycle;Signal;HPM_P1;HPM_P2
2021/12/19 00:00:19;;;;;;;8.07;4.70;;;6.60;99.90;;;;;;5014249;28;20036;-52
2021/12/19 00:10:55;;;;;;;16.08;5.68;;;6.60;99.90;;;;;;5020880;28;20461;-52
2021/12/19 00:13:24;;;;;;;11.85;5.38;;;6.60;99.90;;;;;;5016153;28;20452;-50
2021/12/19 00:15:49;;;;;;;12.15;4.75;;;6.60;99.90;;;;;;5011798;28;20065;-53
2021/12/19 00:18:15;;;;;;;13.65;6.47;;;6.60;99.90;;;;;;5020301;28;20045;-56
2021/12/19 00:20:41;;;;;;;10.27;5.40;;;6.60;99.90;;;;;;5012801;28;20030;-49
2021/12/19 00:23:06;;;;;;;13.65;5.45;;;6.60;99.90;;;;;;5006042;28;20037;-52
2021/12/19 00:25:32;;;;;;;9.40;4.97;;;6.60;99.90;;;;;;5009112;28;20052;-53
2021/12/19 00:27:58;;;;;;;8.55;4.43;;;6.60;99.90;;;;;;5011371;28;20040;-57
2021/12/19 00:30:23;;;;;;;8.13;4.55;;;6.60;99.90;;;;;;5012159;28;20108;-51
2021/12/19 00:32:49;;;;;;;14.60;5.40;;;6.60;99.90;;;;;;5011765;28;20507;-52
2021/12/19 00:35:15;;;;;;;8.93;4.32;;;6.60;99.90;;;;;;5013165;28;20559;-51
2021/12/19 00:37:41;;;;;;;11.10;5.65;;;6.50;99.90;;;;;;5017208;28;20088;-54
2021/12/19 00:40:08;;;;;;;14.25;5.85;;;6.60;99.90;;;;;;5019949;28;20036;-53
2021/12/19 00:42:35;;;;;;;11.55;5.35;;;6.60;99.90;;;;;;5020031;28;20519;-50
2021/12/19 00:45:27;;;;;;;15.30;5.10;;;6.60;99.90;;;;;;5011268;28;20712;-58
2021/12/19 00:47:53;;;;;;;16.05;6.53;;;6.50;99.90;;;;;;5011315;28;20033;-51
2021/12/19 00:50:19;;;;;;;11.20;6.20;;;6.60;99.90;;;;;;5020733;28;20029;-51
2021/12/19 00:52:46;;;;;;;14.52;6.25;;;6.60;99.90;;;;;;5016371;28;20038;-50
2021/12/19 00:55:13;;;;;;;14.93;6.57;;;6.60;99.90;;;;;;5016828;28;20028;-55
2021/12/19 00:57:39;;;;;;;18.77;6.82;;;6.60;99.90;;;;;;5010042;28;20041;-53
2021/12/19 01:00:08;;;;;;;13.73;5.93;;;6.60;99.90;;;;;;5012740;28;20404;-53
2021/12/19 01:02:34;;;;;;;17.00;6.47;;;6.60;99.90;;;;;;5011038;28;20049;-49
2021/12/19 01:05:00;;;;;;;19.40;6.65;;;6.70;99.90;;;;;;5009890;28;20403;-50
2021/12/19 01:07:26;;;;;;;15.77;6.90;;;6.70;99.90;;;;;;5015176;28;20042;-51
2021/12/19 01:09:52;;;;;;;20.02;6.47;;;6.70;99.90;;;;;;5011359;28;20373;-54
2021/12/19 01:12:18;;;;;;;11.52;6.05;;;6.60;99.90;;;;;;5013364;28;20042;-50
2021/12/19 01:14:44;;;;;;;16.20;6.65;;;6.70;99.90;;;;;;5019622;28;20037;-51
2021/12/19 01:17:09;;;;;;;20.15;5.78;;;6.70;99.90;;;;;;5019506;28;20104;-52
2021/12/19 01:19:35;;;;;;;17.20;6.45;;;6.70;99.90;;;;;;5012929;28;20033;-51
2021/12/19 01:22:01;;;;;;;10.52;5.30;;;6.70;99.90;;;;;;5013128;28;20574;-53
2021/12/19 01:24:27;;;;;;;12.13;6.85;;;6.70;99.90;;;;;;5019333;28;20468;-58
2021/12/19 01:26:53;;;;;;;11.70;5.55;;;6.70;99.90;;;;;;5008998;28;20053;-55
2021/12/19 01:29:18;;;;;;;15.65;6.32;;;6.70;99.90;;;;;;5003855;28;20257;-54
2021/12/19 01:31:44;;;;;;;23.27;6.53;;;6.70;99.90;;;;;;5005837;28;20368;-51
2021/12/19 01:34:13;;;;;;;11.57;5.68;;;6.70;99.90;;;;;;5007359;28;20462;-55
2021/12/19 01:36:43;;;;;;;21.85;5.50;;;6.70;99.90;;;;;;5012621;28;20056;-50
2021/12/19 01:39:10;;;;;;;16.02;6.45;;;6.70;99.90;;;;;;5010537;28;20041;-50
2021/12/19 01:41:42;;;;;;;16.20;5.75;;;6.70;99.90;;;;;;5010770;28;20114;-56
2021/12/19 01:44:09;;;;;;;14.63;5.15;;;6.70;99.90;;;;;;5016742;28;20029;-52
2021/12/19 01:46:35;;;;;;;17.67;6.07;;;6.70;99.90;;;;;;5019145;28;20145;-55
2021/12/19 01:49:01;;;;;;;19.08;6.22;;;6.70;99.90;;;;;;5019028;28;20065;-52
2021/12/19 01:51:27;;;;;;;11.25;6.78;;;6.70;99.90;;;;;;5009986;28;20557;-55
2021/12/19 01:53:52;;;;;;;16.75;6.05;;;6.70;99.90;;;;;;5018684;28;20499;-55
2021/12/19 01:56:18;;;;;;;15.60;6.13;;;6.70;99.90;;;;;;5015226;28;20283;-50
2021/12/19 01:58:46;;;;;;;15.48;5.63;;;6.70;99.90;;;;;;5015397;28;20045;-53
2021/12/19 02:01:12;;;;;;;16.17;5.75;;;6.70;99.90;;;;;;5008946;28;20026;-52
2021/12/19 02:03:38;;;;;;;14.57;4.35;;;6.70;99.90;;;;;;5016461;28;20189;-51
2021/12/19 02:06:04;;;;;;;9.85;5.22;;;6.70;99.90;;;;;;5015096;28;20052;-51
2021/12/19 02:08:30;;;;;;;16.00;5.68;;;6.80;99.90;;;;;;5018571;28;20127;-53
2021/12/19 02:10:56;;;;;;;14.75;4.93;;;6.80;99.90;;;;;;5018236;28;20487;-54
2021/12/19 02:13:22;;;;;;;19.35;5.80;;;6.80;99.90;;;;;;5009780;28;21474;-50
2021/12/19 02:15:48;;;;;;;14.95;5.43;;;6.70;99.90;;;;;;5017358;28;20603;-54
2021/12/19 02:18:21;;;;;;;12.23;4.18;;;6.70;99.90;;;;;;5006714;28;20585;-51
2021/12/19 02:20:53;;;;;;;9.77;4.28;;;6.70;99.90;;;;;;5009974;28;20038;-51
2021/12/19 02:23:21;;;;;;;12.98;4.85;;;6.70;99.90;;;;;;5011953;28;20031;-50
2021/12/19 02:25:47;;;;;;;14.52;5.28;;;6.80;99.90;;;;;;5018571;28;20033;-51
2021/12/19 02:28:13;;;;;;;11.40;4.50;;;6.80;99.90;;;;;;5014476;28;20076;-52
2021/12/19 02:30:39;;;;;;;17.05;4.57;;;6.80;99.90;;;;;;5010769;28;20488;-52
2021/12/19 02:33:12;;;;;;;11.57;4.40;;;6.80;99.90;;;;;;5013807;28;20049;-50
2021/12/19 02:35:39;;;;;;;11.57;4.97;;;6.70;99.90;;;;;;5012145;28;20029;-55
2021/12/19 02:48:15;;;;;;;9.95;5.30;;;6.70;99.90;;;;;;5018146;28;20064;-56
2021/12/19 02:50:49;;;;;;;15.65;5.30;;;6.70;99.90;;;;;;5015774;28;20073;-54
2021/12/19 02:53:23;;;;;;;12.98;5.90;;;6.80;99.90;;;;;;5015522;28;20022;-59
2021/12/19 02:55:49;;;;;;;11.60;5.47;;;6.80;99.90;;;;;;5009246;28;20034;-55
2021/12/19 02:58:14;;;;;;;10.32;5.20;;;6.70;99.90;;;;;;5009266;28;20033;-52
2021/12/19 03:00:40;;;;;;;13.75;6.28;;;6.80;99.90;;;;;;5010447;28;20503;-56
2021/12/19 03:03:06;;;;;;;13.07;5.38;;;6.70;99.90;;;;;;5011420;28;20734;-57
2021/12/19 03:05:33;;;;;;;13.93;4.70;;;6.70;99.90;;;;;;5010467;28;20558;-56
2021/12/19 03:08:01;;;;;;;13.40;4.68;;;6.80;99.90;;;;;;5007932;28;20033;-58
2021/12/19 03:18:06;;;;;;;4.78;1.75;;;6.80;99.90;;;;;;5017756;28;20045;-55
2021/12/19 03:20:34;;;;;;;3.13;1.60;;;6.70;99.90;;;;;;5008957;28;20026;-55
2021/12/19 03:23:00;;;;;;;3.25;1.40;;;6.80;99.90;;;;;;5013106;28;20042;-54
2021/12/19 03:25:27;;;;;;;3.63;2.08;;;6.80;99.90;;;;;;5029013;28;20132;-56
2021/12/19 03:27:53;;;;;;;4.97;2.10;;;6.80;99.90;;;;;;5017559;28;20033;-58
2021/12/19 03:30:19;;;;;;;5.65;2.40;;;6.70;99.90;;;;;;5019811;28;20045;-56
2021/12/19 03:32:45;;;;;;;5.72;3.45;;;6.80;99.90;;;;;;5021629;28;20029;-57
2021/12/19 03:35:11;;;;;;;7.13;4.15;;;6.70;99.90;;;;;;5015461;28;20060;-56
2021/12/19 03:37:37;;;;;;;7.75;3.55;;;6.80;99.90;;;;;;5020977;28;20041;-54
2021/12/19 03:40:10;;;;;;;7.25;3.90;;;6.80;99.90;;;;;;5012464;28;20034;-55
2021/12/19 03:42:39;;;;;;;10.30;3.60;;;6.70;99.90;;;;;;5017951;28;20038;-56
2021/12/19 03:45:06;;;;;;;5.13;3.05;;;6.70;99.90;;;;;;5008616;28;20034;-57
2021/12/19 03:47:32;;;;;;;5.07;3.03;;;6.70;99.90;;;;;;5006496;28;20501;-55
2021/12/19 03:49:58;;;;;;;7.30;3.05;;;6.70;99.90;;;;;;5008987;28;20128;-58
2021/12/19 03:52:23;;;;;;;4.80;2.25;;;6.70;99.90;;;;;;5021101;28;20029;-53
2021/12/19 03:54:49;;;;;;;4.00;2.45;;;6.70;99.90;;;;;;5014261;28;20116;-53
2021/12/19 03:57:14;;;;;;;4.55;1.70;;;6.70;99.90;;;;;;5014595;28;20413;-56
2021/12/19 03:59:43;;;;;;;3.80;1.80;;;6.60;99.90;;;;;;5020344;28;20041;-54
2021/12/19 04:02:09;;;;;;;7.68;2.20;;;6.60;99.90;;;;;;5019544;28;20407;-58
2021/12/19 04:04:38;;;;;;;5.20;2.35;;;6.50;99.90;;;;;;5019103;28;20037;-53
2021/12/19 04:07:04;;;;;;;4.55;1.95;;;6.50;99.90;;;;;;5014686;28;20041;-57
2021/12/19 04:09:29;;;;;;;4.95;1.90;;;6.50;99.90;;;;;;5011520;28;20111;-53
2021/12/19 04:11:56;;;;;;;3.63;1.55;;;6.50;99.90;;;;;;5011948;28;20064;-54
2021/12/19 04:14:22;;;;;;;4.32;1.77;;;6.50;99.90;;;;;;5011847;28;20042;-53
2021/12/19 04:16:48;;;;;;;5.65;1.60;;;6.50;99.90;;;;;;5020429;28;20415;-55
2021/12/19 04:19:13;;;;;;;2.95;1.60;;;6.50;99.90;;;;;;5013463;28;20038;-53
2021/12/19 04:21:39;;;;;;;4.65;1.80;;;6.50;99.90;;;;;;5013155;28;20034;-55
2021/12/19 04:24:05;;;;;;;7.88;2.38;;;6.50;99.90;;;;;;5013259;28;20061;-58
2021/12/19 04:26:31;;;;;;;5.15;1.65;;;6.50;99.90;;;;;;5020559;28;20037;-57
2021/12/19 04:28:56;;;;;;;7.50;1.80;;;6.50;99.90;;;;;;5019406;28;20044;-55
2021/12/19 04:31:22;;;;;;;5.65;1.55;;;6.50;99.90;;;;;;5020348;28;20061;-52
2021/12/19 04:33:49;;;;;;;4.47;1.55;;;6.50;99.90;;;;;;5013502;28;20105;-53
2021/12/19 04:36:22;;;;;;;1.15;0.90;;;6.50;99.90;;;;;;5020046;28;20044;-49
2021/12/19 04:42:31;;;;;;;5.15;1.42;;;6.50;99.90;;;;;;5012029;28;20555;-56
2021/12/19 04:58:17;;;;;;;3.70;1.45;;;6.60;99.90;;;;;;5007305;28;20112;-55
2021/12/19 05:01:10;;;;;;;8.15;1.20;;;6.60;99.90;;;;;;5013054;28;20116;-54
2021/12/19 05:14:20;;;;;;;8.75;3.05;;;6.60;99.90;;;;;;5011063;28;20083;-52
2021/12/19 05:16:47;;;;;;;7.13;1.88;;;6.60;99.90;;;;;;5011895;28;20117;-54
2021/12/19 05:19:27;;;;;;;4.43;1.58;;;6.60;99.90;;;;;;5017324;28;20030;-58
2021/12/19 05:21:58;;;;;;;5.35;1.45;;;6.60;99.90;;;;;;5012927;28;20021;-54
2021/12/19 05:27:09;;;;;;;7.53;2.30;;;6.70;99.90;;;;;;5019014;28;20532;-56
2021/12/19 05:29:36;;;;;;;9.73;1.88;;;6.70;99.90;;;;;;5009801;28;20038;-55
2021/12/19 05:32:03;;;;;;;6.53;2.20;;;6.70;99.90;;;;;;5012282;28;20061;-51
2021/12/19 05:34:30;;;;;;;7.25;1.88;;;6.70;99.90;;;;;;5019204;28;20025;-58
2021/12/19 05:47:36;;;;;;;7.00;1.92;;;6.80;99.90;;;;;;5013201;28;20159;-55
2021/12/19 05:50:04;;;;;;;6.38;1.77;;;6.80;99.90;;;;;;5017069;28;20029;-56
2021/12/19 05:52:29;;;;;;;4.82;1.60;;;6.80;99.90;;;;;;5009948;28;20025;-60
2021/12/19 05:54:55;;;;;;;9.90;2.38;;;6.80;99.90;;;;;;5011170;28;20530;-51
2021/12/19 05:57:21;;;;;;;11.70;1.85;;;6.90;99.90;;;;;;5018775;28;20467;-56
2021/12/19 05:59:47;;;;;;;8.13;1.60;;;6.90;99.90;;;;;;5013397;28;20029;-53
2021/12/19 06:02:12;;;;;;;8.93;1.83;;;6.90;99.90;;;;;;5020894;28;20025;-55
2021/12/19 06:04:38;;;;;;;7.90;2.55;;;6.90;99.90;;;;;;5008263;28;20565;-56
2021/12/19 06:07:04;;;;;;;9.88;1.90;;;6.90;99.90;;;;;;5004642;28;20032;-54
2021/12/19 06:09:29;;;;;;;3.33;1.30;;;6.90;99.90;;;;;;5005776;28;20025;-57
2021/12/19 06:11:55;;;;;;;8.88;1.90;;;6.90;99.90;;;;;;5010024;28;20030;-56
2021/12/19 06:14:22;;;;;;;7.25;2.63;;;7.00;99.90;;;;;;5017317;28;20064;-59
2021/12/19 06:16:48;;;;;;;7.25;1.83;;;7.00;99.90;;;;;;5018745;28;20021;-58
2021/12/19 06:19:13;;;;;;;7.72;2.08;;;7.00;99.90;;;;;;5016618;28;20037;-57
2021/12/19 06:21:39;;;;;;;5.32;1.38;;;7.00;99.90;;;;;;5009984;28;20040;-54
2021/12/19 06:24:05;;;;;;;7.80;1.70;;;7.00;99.90;;;;;;5010790;28;20105;-57
2021/12/19 06:26:35;;;;;;;7.60;2.60;;;7.00;99.90;;;;;;5015541;28;20064;-57
2021/12/19 06:29:01;;;;;;;3.90;1.20;;;7.00;99.90;;;;;;5010284;28;20037;-54
2021/12/19 06:31:26;;;;;;;13.63;1.85;;;7.00;99.90;;;;;;5018071;28;20030;-58
2021/12/19 06:33:52;;;;;;;9.35;1.77;;;6.90;99.90;;;;;;5014295;28;20072;-52
2021/12/19 06:36:18;;;;;;;12.50;1.70;;;7.00;99.90;;;;;;5018139;28;20120;-56
2021/12/19 06:38:43;;;;;;;12.45;1.45;;;6.90;99.90;;;;;;5009699;28;20073;-56
2021/12/19 06:41:09;;;;;;;6.28;1.77;;;6.90;99.90;;;;;;5010513;28;20436;-57
2021/12/19 06:43:34;;;;;;;5.00;1.92;;;6.90;99.90;;;;;;5014414;28;20033;-60
2021/12/19 06:46:00;;;;;;;6.47;1.38;;;6.90;99.90;;;;;;5009263;28;20025;-55
2021/12/19 06:48:26;;;;;;;7.60;1.90;;;6.90;99.90;;;;;;5016997;28;20038;-52
2021/12/19 06:50:53;;;;;;;6.68;1.48;;;6.90;99.90;;;;;;5018126;28;20160;-52
2021/12/19 06:53:18;;;;;;;5.28;1.88;;;6.90;99.90;;;;;;5014860;28;20030;-53
2021/12/19 06:55:44;;;;;;;10.55;2.25;;;6.90;99.90;;;;;;5010261;28;20037;-52
2021/12/19 06:58:10;;;;;;;5.00;1.33;;;6.90;99.90;;;;;;5015436;28;20041;-55
2021/12/19 07:00:36;;;;;;;7.05;1.50;;;6.90;99.90;;;;;;5016367;28;20034;-56
2021/12/19 07:03:02;;;;;;;7.13;1.13;;;6.90;99.90;;;;;;5017471;28;20034;-58
2021/12/19 07:05:27;;;;;;;8.15;1.67;;;7.00;99.90;;;;;;5022143;28;20018;-51
2021/12/19 07:07:53;;;;;;;9.05;2.28;;;7.00;99.90;;;;;;5017858;28;20134;-51
2021/12/19 07:10:18;;;;;;;9.07;1.52;;;6.90;99.90;;;;;;5015077;28;20044;-51
2021/12/19 07:12:44;;;;;;;4.88;1.00;;;6.90;99.90;;;;;;5017171;28;20037;-56
2021/12/19 07:15:11;;;;;;;4.63;1.20;;;6.90;99.90;;;;;;5021748;28;20025;-55
2021/12/19 07:17:36;;;;;;;7.38;1.67;;;6.90;99.90;;;;;;5008291;28;20569;-52
2021/12/19 07:20:04;;;;;;;12.07;2.15;;;7.00;99.90;;;;;;5007358;28;20042;-57
2021/12/19 07:22:29;;;;;;;9.65;2.10;;;7.00;99.90;;;;;;5014766;28;20847;-56
2021/12/19 07:24:55;;;;;;;6.63;1.85;;;7.00;99.90;;;;;;5021547;28;20060;-53
2021/12/19 07:27:21;;;;;;;7.13;1.30;;;7.00;99.90;;;;;;5016170;28;20034;-55
2021/12/19 07:29:47;;;;;;;6.07;1.63;;;7.10;99.90;;;;;;5012891;28;20507;-56
2021/12/19 07:32:13;;;;;;;5.72;1.48;;;7.00;99.90;;;;;;5020389;28;20033;-57
2021/12/19 07:34:40;;;;;;;6.35;1.63;;;7.00;99.90;;;;;;5015714;28;20051;-56
2021/12/19 07:37:06;;;;;;;11.77;2.38;;;7.10;99.90;;;;;;5021210;28;20036;-54
2021/12/19 07:42:01;;;;;;;6.15;1.05;;;7.10;99.90;;;;;;5022756;28;20021;-53
2021/12/19 07:44:27;;;;;;;7.20;1.90;;;7.10;99.90;;;;;;5012035;28;20613;-58
2021/12/19 07:46:52;;;;;;;7.85;1.42;;;7.10;99.90;;;;;;5018202;28;20108;-52
2021/12/19 07:49:18;;;;;;;3.58;1.42;;;7.10;99.90;;;;;;5015219;28;20365;-54
2021/12/19 07:51:43;;;;;;;6.25;1.30;;;7.10;99.90;;;;;;5014624;28;20496;-54
2021/12/19 07:54:09;;;;;;;6.18;1.20;;;7.10;99.90;;;;;;5018353;28;20052;-58
2021/12/19 07:56:35;;;;;;;13.27;2.17;;;7.10;99.90;;;;;;5012648;28;20053;-58
2021/12/19 07:59:01;;;;;;;7.38;1.80;;;7.20;99.90;;;;;;5016671;28;20038;-53
2021/12/19 08:01:27;;;;;;;9.15;1.77;;;7.20;99.90;;;;;;5017380;28;20029;-52
2021/12/19 08:03:53;;;;;;;8.60;1.08;;;7.20;99.90;;;;;;5031214;28;20039;-55
2021/12/19 08:06:18;;;;;;;6.82;1.92;;;7.20;99.90;;;;;;5031873;28;20474;-52
2021/12/19 08:08:50;;;;;;;9.52;1.63;;;7.20;99.90;;;;;;5014497;28;20038;-54
2021/12/19 08:14:00;;;;;;;10.70;1.88;;;7.20;99.90;;;;;;5013387;28;20087;-58
2021/12/19 08:16:25;;;;;;;6.68;1.52;;;7.20;99.90;;;;;;5012487;28;20033;-55
2021/12/19 08:18:52;;;;;;;8.75;1.65;;;7.20;99.90;;;;;;5012462;28;20257;-57
2021/12/19 08:21:19;;;;;;;5.88;1.55;;;7.20;99.90;;;;;;5012401;28;20034;-57
2021/12/19 08:23:44;;;;;;;10.63;2.42;;;7.20;99.90;;;;;;5013701;28;20061;-57
2021/12/19 08:26:10;;;;;;;7.78;1.80;;;7.20;99.90;;;;;;5012045;28;20574;-55
2021/12/19 08:28:35;;;;;;;9.95;1.83;;;7.30;99.90;;;;;;5011227;28;20088;-54
2021/12/19 08:31:01;;;;;;;4.35;2.03;;;7.20;99.90;;;;;;5011921;28;20050;-54
2021/12/19 08:33:27;;;;;;;8.43;1.80;;;7.20;99.90;;;;;;5012808;28;20025;-54
2021/12/19 08:35:53;;;;;;;8.35;1.98;;;7.20;99.90;;;;;;5009684;28;20030;-57
2021/12/19 08:38:18;;;;;;;11.25;2.08;;;7.20;99.90;;;;;;5028199;28;20060;-56
2021/12/19 08:40:46;;;;;;;5.70;2.10;;;7.20;99.90;;;;;;5032010;28;20044;-56
2021/12/19 08:43:12;;;;;;;6.55;1.52;;;7.30;99.90;;;;;;5029550;28;20036;-55
2021/12/19 08:45:37;;;;;;;10.75;1.95;;;7.30;99.90;;;;;;5022813;28;20038;-56
2021/12/19 08:48:04;;;;;;;8.98;2.38;;;7.30;99.90;;;;;;5013258;28;20049;-56
2021/12/19 08:50:30;;;;;;;5.30;1.27;;;7.30;99.90;;;;;;5011850;28;20030;-54
2021/12/19 08:52:56;;;;;;;8.55;1.63;;;7.30;99.90;;;;;;5011660;28;20041;-54
2021/12/19 08:55:22;;;;;;;7.03;1.10;;;7.30;99.90;;;;;;5010362;28;20026;-56
2021/12/19 08:57:48;;;;;;;12.73;1.83;;;7.30;99.90;;;;;;5011255;28;20101;-53
2021/12/19 09:00:14;;;;;;;10.07;2.05;;;7.30;99.90;;;;;;5011293;28;20035;-57
2021/12/19 09:02:43;;;;;;;4.45;1.13;;;7.30;99.90;;;;;;5011786;28;20026;-57
2021/12/19 09:05:09;;;;;;;7.53;1.60;;;7.30;99.90;;;;;;5011264;28;20518;-53
2021/12/19 09:07:35;;;;;;;5.18;1.38;;;7.40;99.90;;;;;;5010834;28;20113;-55
2021/12/19 09:10:01;;;;;;;10.63;2.03;;;7.40;99.90;;;;;;5010378;28;20026;-56
2021/12/19 09:12:27;;;;;;;10.98;2.17;;;7.40;99.90;;;;;;5011642;28;20502;-54
2021/12/19 09:14:54;;;;;;;6.43;1.35;;;7.40;99.90;;;;;;5011406;28;20030;-57
2021/12/19 09:17:19;;;;;;;8.02;1.88;;;7.40;99.90;;;;;;5016062;28;20045;-56
2021/12/19 09:19:45;;;;;;;6.47;1.60;;;7.40;99.90;;;;;;5029463;28;20064;-51
2021/12/19 09:22:13;;;;;;;7.07;1.67;;;7.50;99.90;;;;;;5030530;28;20018;-58
2021/12/19 09:24:39;;;;;;;7.40;1.85;;;7.50;99.90;;;;;;5029064;28;20472;-56
2021/12/19 09:27:07;;;;;;;12.07;1.90;;;7.50;99.90;;;;;;5026085;28;20069;-54
2021/12/19 09:29:33;;;;;;;7.85;2.03;;;7.50;99.90;;;;;;5023446;28;20392;-55
2021/12/19 09:31:59;;;;;;;7.90;2.20;;;7.50;99.90;;;;;;5009329;28;20034;-54
2021/12/19 09:34:26;;;;;;;7.93;1.98;;;7.50;99.90;;;;;;5012592;28;20053;-55
2021/12/19 09:36:53;;;;;;;8.63;1.48;;;7.60;99.90;;;;;;4996646;28;20428;-55
2021/12/19 09:39:19;;;;;;;8.00;2.08;;;7.60;99.90;;;;;;4995574;28;20080;-54
2021/12/19 09:41:46;;;;;;;7.75;1.40;;;7.60;99.90;;;;;;4991976;28;20105;-58
2021/12/19 09:44:15;;;;;;;8.82;1.90;;;7.70;99.90;;;;;;4994187;28;20032;-53
2021/12/19 09:46:43;;;;;;;7.68;2.35;;;7.70;99.90;;;;;;4992689;28;20030;-56
2021/12/19 09:49:11;;;;;;;8.05;2.60;;;7.70;99.90;;;;;;4998644;28;20696;-56
2021/12/19 09:51:37;;;;;;;5.30;1.63;;;7.80;99.90;;;;;;5002592;28;20026;-57
2021/12/19 09:54:05;;;;;;;7.22;1.92;;;7.80;99.90;;;;;;4998825;28;20374;-59
2021/12/19 09:56:33;;;;;;;8.35;1.88;;;7.80;99.90;;;;;;4993292;28;20046;-55
2021/12/19 09:59:00;;;;;;;6.63;1.45;;;7.80;99.90;;;;;;4994112;28;20483;-57
2021/12/19 10:01:26;;;;;;;8.57;2.05;;;7.80;99.90;;;;;;5006962;28;20022;-56
2021/12/19 10:03:51;;;;;;;6.38;1.52;;;7.80;99.90;;;;;;5008589;28;20476;-58
2021/12/19 10:06:20;;;;;;;5.63;1.33;;;7.80;99.90;;;;;;5010002;28;20477;-55
2021/12/19 10:09:06;;;;;;;5.25;1.50;;;7.90;99.90;;;;;;5010543;28;20073;-57
2021/12/19 10:14:33;;;;;;;5.07;2.13;;;7.90;99.90;;;;;;4990768;28;20034;-55
2021/12/19 10:17:06;;;;;;;5.78;1.45;;;7.90;99.90;;;;;;4993968;28;20021;-56
2021/12/19 10:19:48;;;;;;;8.18;2.30;;;7.80;99.90;;;;;;5010161;28;20022;-57
2021/12/19 10:22:40;;;;;;;6.65;1.67;;;7.90;99.90;;;;;;5010270;28;20018;-60
2021/12/19 10:25:24;;;;;;;5.22;1.48;;;7.90;99.90;;;;;;5009785;28;20022;-59
2021/12/19 10:28:04;;;;;;;9.77;2.22;;;7.90;99.90;;;;;;5009546;28;20130;-53
2021/12/19 10:30:35;;;;;;;11.73;1.65;;;7.90;99.90;;;;;;5009829;28;20033;-55
2021/12/19 10:33:25;;;;;;;4.40;1.25;;;7.90;99.90;;;;;;5009377;28;20537;-55
2021/12/19 10:35:55;;;;;;;4.45;1.52;;;7.90;99.90;;;;;;5001139;28;20045;-57
2021/12/19 10:38:20;;;;;;;9.10;1.60;;;7.90;99.90;;;;;;5009570;28;20038;-58
2021/12/19 10:41:09;;;;;;;4.88;1.50;;;7.90;99.90;;;;;;5009742;28;20045;-58
2021/12/19 10:43:46;;;;;;;9.27;1.92;;;7.90;99.90;;;;;;5008894;28;20508;-53
2021/12/19 10:46:12;;;;;;;10.05;2.42;;;7.90;99.90;;;;;;5010539;28;20030;-57
2021/12/19 10:48:42;;;;;;;4.93;1.55;;;7.90;99.90;;;;;;5008720;28;20218;-55
2021/12/19 10:51:15;;;;;;;10.73;3.20;;;7.90;99.90;;;;;;5009541;28;20034;-50
2021/12/19 10:53:55;;;;;;;9.20;1.88;;;7.90;99.90;;;;;;5009798;28;20029;-51
2021/12/19 10:56:29;;;;;;;8.80;1.70;;;8.00;99.90;;;;;;5009041;28;20029;-49
2021/12/19 10:58:58;;;;;;;9.52;2.25;;;8.00;99.90;;;;;;5013489;28;20030;-55
2021/12/19 11:01:31;;;;;;;7.80;2.03;;;8.00;99.90;;;;;;5008843;28;20033;-59
2021/12/19 11:04:02;;;;;;;9.18;1.90;;;8.00;99.90;;;;;;5005269;28;20018;-56
2021/12/19 11:06:32;;;;;;;4.88;1.88;;;8.00;99.90;;;;;;5014862;28;20034;-56
2021/12/19 11:09:00;;;;;;;6.90;1.70;;;8.00;99.90;;;;;;5009230;28;20026;-54
2021/12/19 11:11:39;;;;;;;7.47;2.30;;;8.00;99.90;;;;;;5015401;28;20026;-53
2021/12/19 11:14:06;;;;;;;9.00;2.33;;;8.00;99.90;;;;;;5006889;28;20112;-53
2021/12/19 11:16:32;;;;;;;10.10;2.05;;;8.00;99.90;;;;;;5010674;28;20285;-51
2021/12/19 11:18:59;;;;;;;7.05;1.70;;;8.00;99.90;;;;;;4995880;28;20053;-57
2021/12/19 11:21:24;;;;;;;12.25;3.15;;;8.00;99.90;;;;;;4989835;28;20101;-53
2021/12/19 11:23:50;;;;;;;5.07;1.90;;;8.00;99.90;;;;;;4994977;28;20113;-53
2021/12/19 11:26:20;;;;;;;9.02;1.92;;;8.00;99.90;;;;;;4996707;28;20023;-57
2021/12/19 11:28:47;;;;;;;6.75;1.92;;;8.00;99.90;;;;;;4998352;28;20037;-55
2021/12/19 11:31:13;;;;;;;6.95;1.73;;;8.10;99.90;;;;;;5019754;28;20125;-54
2021/12/19 11:34:01;;;;;;;6.65;1.40;;;8.10;99.90;;;;;;5014698;28;20471;-53
2021/12/19 11:36:32;;;;;;;7.47;2.13;;;8.10;99.90;;;;;;5002327;28;20460;-57
2021/12/19 11:39:01;;;;;;;6.75;1.95;;;8.10;99.90;;;;;;4992089;28;20029;-58
2021/12/19 11:41:27;;;;;;;8.63;2.05;;;8.10;99.90;;;;;;5019800;28;20061;-54
2021/12/19 11:43:56;;;;;;;5.93;1.80;;;8.10;99.90;;;;;;4994310;28;20033;-52
2021/12/19 11:46:52;;;;;;;9.18;1.95;;;8.10;99.90;;;;;;4993069;28;20042;-52
2021/12/19 11:49:25;;;;;;;6.50;1.52;;;8.10;99.90;;;;;;4994226;28;20089;-55
2021/12/19 11:52:22;;;;;;;6.00;2.00;;;8.10;99.90;;;;;;4992732;28;20522;-58
2021/12/19 11:55:06;;;;;;;;;;;8.10;99.90;;;;;;5013931;28;20037;-56
2021/12/19 11:57:31;;;;;;;10.13;2.83;;;8.20;99.90;;;;;;4992860;28;19910;-52
2021/12/19 12:00:31;;;;;;;9.68;2.70;;;8.10;99.90;;;;;;5005615;28;20030;-58
2021/12/19 12:03:12;;;;;;;7.38;2.00;;;8.20;99.90;;;;;;4995109;28;20084;-56
2021/12/19 12:05:46;;;;;;;6.45;2.45;;;8.20;99.90;;;;;;5007772;28;20417;-51
2021/12/19 12:08:18;;;;;;;7.63;2.13;;;8.20;99.90;;;;;;5000541;28;20036;-53
2021/12/19 12:11:07;;;;;;;7.53;2.20;;;8.10;99.90;;;;;;5004503;28;20034;-54
2021/12/19 12:13:42;;;;;;;5.47;1.98;;;8.10;99.90;;;;;;5010158;28;20053;-55
2021/12/19 12:16:19;;;;;;;14.17;2.13;;;8.20;99.90;;;;;;5006002;28;20045;-55
2021/12/19 12:18:53;;;;;;;9.80;2.88;;;8.10;99.90;;;;;;4994634;28;20164;-53
2021/12/19 12:21:28;;;;;;;8.85;2.20;;;8.10;99.90;;;;;;4993010;28;20025;-52
2021/12/19 12:24:02;;;;;;;9.05;2.45;;;8.10;99.90;;;;;;5013129;28;20030;-56
2021/12/19 12:26:47;;;;;;;9.07;2.47;;;8.10;99.90;;;;;;5005439;28;20072;-54
2021/12/19 12:29:13;;;;;;;11.52;2.85;;;8.10;99.90;;;;;;4991858;28;20026;-53
2021/12/19 12:31:42;;;;;;;9.55;2.53;;;8.20;99.90;;;;;;4999474;28;20021;-53
2021/12/19 12:34:10;;;;;;;4.35;1.90;;;8.10;99.90;;;;;;4999843;28;20034;-58
2021/12/19 12:36:35;;;;;;;9.57;2.38;;;8.10;99.90;;;;;;4999451;28;20030;-52
2021/12/19 12:39:08;;;;;;;11.25;2.22;;;8.10;99.90;;;;;;4993060;28;20037;-55
2021/12/19 12:44:11;;;;;;;7.63;2.53;;;8.20;99.90;;;;;;4991795;28;20031;-55
2021/12/19 12:46:37;;;;;;;8.25;2.13;;;8.10;99.90;;;;;;4998959;28;20022;-54
2021/12/19 12:49:04;;;;;;;7.47;2.35;;;8.20;99.90;;;;;;5011699;28;20026;-57
2021/12/19 12:51:45;;;;;;;9.80;2.58;;;8.20;99.90;;;;;;5017861;28;20068;-58
2021/12/19 12:54:13;;;;;;;7.20;1.23;;;8.20;99.90;;;;;;5030418;28;20415;-56
2021/12/19 12:56:48;;;;;;;8.35;2.20;;;8.20;99.90;;;;;;5029299;28;20500;-56
2021/12/19 12:59:16;;;;;;;11.48;2.25;;;8.10;99.90;;;;;;5029746;28;20032;-50
2021/12/19 13:01:47;;;;;;;8.68;2.10;;;8.10;99.90;;;;;;5019993;28;20021;-56
2021/12/19 13:04:14;;;;;;;8.10;2.40;;;8.10;99.90;;;;;;5014633;28;20055;-57
2021/12/19 13:06:46;;;;;;;9.68;2.78;;;8.10;99.90;;;;;;5021704;28;20036;-56
2021/12/19 13:09:19;;;;;;;8.18;2.33;;;8.10;99.90;;;;;;5017062;28;20082;-56
2021/12/19 13:11:49;;;;;;;8.00;3.65;;;8.00;99.90;;;;;;5030893;28;20079;-59
2021/12/19 13:14:28;;;;;;;5.00;2.00;;;8.00;99.90;;;;;;5018217;28;20190;-54
2021/12/19 13:17:01;;;;;;;9.48;2.95;;;8.00;99.90;;;;;;5009743;28;20022;-57
2021/12/19 13:19:54;;;;;;;11.02;2.88;;;8.10;99.90;;;;;;4995146;28;20046;-51
2021/12/19 13:22:31;;;;;;;8.15;2.20;;;8.10;99.90;;;;;;4991181;28;20058;-57
2021/12/19 13:25:18;;;;;;;8.55;2.28;;;8.00;99.90;;;;;;5002195;28;20100;-58
2021/12/19 13:27:47;;;;;;;10.85;2.50;;;8.00;99.90;;;;;;4980585;28;20034;-53
2021/12/19 13:30:18;;;;;;;9.98;2.17;;;8.00;99.90;;;;;;4994775;28;20644;-54
2021/12/19 13:32:45;;;;;;;6.70;2.92;;;8.00;99.90;;;;;;4990690;28;20022;-56
2021/12/19 13:35:29;;;;;;;8.00;1.95;;;7.90;99.90;;;;;;5024074;28;20039;-55
2021/12/19 13:38:20;;;;;;;6.18;2.20;;;7.90;99.90;;;;;;4991173;28;20026;-52
2021/12/19 13:40:50;;;;;;;16.83;2.85;;;7.80;99.90;;;;;;4991159;28;20496;-54
2021/12/19 13:43:21;;;;;;;8.60;2.58;;;7.80;99.90;;;;;;4990473;28;20545;-56
2021/12/19 13:45:51;;;;;;;8.30;3.03;;;7.70;99.90;;;;;;5005001;28;20022;-50
2021/12/19 13:48:37;;;;;;;13.90;1.98;;;7.70;99.90;;;;;;4990707;28;20413;-55
2021/12/19 13:51:07;;;;;;;6.95;1.98;;;7.70;99.90;;;;;;4990927;28;20101;-50
2021/12/19 13:53:35;;;;;;;10.88;2.78;;;7.60;99.90;;;;;;4996024;28;20041;-54
2021/12/19 13:56:16;;;;;;;8.73;2.65;;;7.60;99.90;;;;;;5019620;28;20477;-55
2021/12/19 13:58:45;;;;;;;13.38;3.40;;;7.60;99.90;;;;;;4990307;28;20065;-52
2021/12/19 14:01:12;;;;;;;11.90;2.80;;;7.60;99.90;;;;;;5002058;28;20014;-60
2021/12/19 14:03:41;;;;;;;10.30;2.47;;;7.50;99.90;;;;;;5015745;28;20048;-52
2021/12/19 14:06:07;;;;;;;9.15;1.90;;;7.50;99.90;;;;;;4999957;28;20456;-57
2021/12/19 14:08:34;;;;;;;16.55;2.35;;;7.50;99.90;;;;;;4995215;28;20032;-55
2021/12/19 14:11:02;;;;;;;11.10;2.38;;;7.40;99.90;;;;;;5004655;28;20030;-50
2021/12/19 14:13:34;;;;;;;15.57;3.58;;;7.40;99.90;;;;;;4993736;28;20388;-56
2021/12/19 14:16:01;;;;;;;11.40;2.42;;;7.40;99.90;;;;;;4990434;28;20045;-52
2021/12/19 14:18:36;;;;;;;8.02;2.20;;;7.40;99.90;;;;;;4999868;28;20440;-54